TISX

Henry E. Rohlsen Airport

Airport
ICAO code
TISX
IATA Code
STX
Summary
ICAO Region
CARSAM
ICAO Territory
Location

Christiansted, US Virgin Islands

Serving
St Croix
Elevation
74 ft
Coordinates
17° 41' 58" N , 64° 47' 51" W
KCC
Airport WX
Tropical Revolving Storm
Metar
TISX 231353Z 10013KT 10SM SCT025 BKN060 31/26 A3003 RMK AO2 RAE53 SLP166 P0000 T03060256

Henry E. Rohlsen Airport is a public airport located 10 km southwest of Christiansted on the island of St. Croix in the United States Virgin Islands.

Climatology

Tropical monsoon climate (Köppen climate classification Am)

Runways

Designator Length Width Surface Rops
10/28 3049 46 ASP Yes/Yes

Airport map

Aerial View

SKYbrary Partners:

Safety knowledge contributed by: